Impacts TAF Board INFO
FOR SITUATIONAL AWARENESS. NOT TO BE USED FOR FLIGHT PLANNING PURPOSES.
IDs:

KBOS - Boston/Logan Intl, MA, US

Issued at 1120 UTC 18 Nov 2017
Updated at 1201 UTC 18 Nov 2017
Potential Impact None Slight Moderate High
Time1154Z 18/13Z 18/14Z 18/15Z 18/16Z 18/17Z 18/18Z 18/19Z 18/20Z 18/21Z 18/22Z 18/23Z 19/00Z 19/01Z>>
Type OBS PRVL PRVL PRVL PRVL PRVL PRVL PRVL PRVL PRVL PRVL PRVL PRVL PRVL
VIS 10 >6 >6 >6 >6 >6 >6 >6 >6 >6 >6 >6 >6 >6
CIG -- -- -- -- -- -- -- -- -- -- -- -- 20 20
Cover FEW SKC SKC SKC SKC SKC SKC SKC SKC SKC SKC SKC OVC OVC
FltCat VFR VFR VFR VFR VFR VFR VFR VFR VFR VFR VFR VFR MVFR MVFR
WX -- -- -- -- -- -- -- -- -- -- -- -- VCSH VCSH
WDir 270 240 240 240 240 240 240 240 240 240 240 240 180 180
WSpd 5 5 5 5 5 5 5 5 5 5 5 5 8 8
WGst -- -- -- -- -- -- -- -- -- -- -- -- -- --

Raw TAF
KBOS 181120Z 1812/1918 24005KT P6SM SKC
  FM190000 18008KT P6SM VCSH OVC020
  FM190200 19009KT 6SM BR VCSH OVC015
  FM190500 20009KT 4SM -RA BR OVC020 WS020/22040KT
  FM190900 20010G28KT 4SM -RA BR OVC010 WS020/21040KT
  FM191100 20012G27KT 2SM -SHRA BR OVC010 WS020/22040KT
  FM191300 21013G28KT 3SM -SHRA BR OVC012
  FM191600 23014G31KT P6SM VCSH BKN020


Raw METAR
KBOS 181154Z 27005KT 10SM FEW080 00/M08 A2998 RMK AO2 SLP151 T00001083 10006 21011 51004
KBOS 181054Z 24004KT 10SM CLR M01/M07 A2998 RMK AO2 SLP151 T10061072
KBOS 180954Z 22003KT 10SM CLR 00/M08 A2998 RMK AO2 SLP152 T00001083

METAR Board
Radar Display
Forecast Discussion

FOR SITUATIONAL AWARENESS. NOT TO BE USED FOR FLIGHT PLANNING PURPOSES.